sensor_id;sensor_type;location;lat;lon;timestamp;temperature;humidity
2623;DHT22;1321;48.690;9.022;2023-01-08T00:01:07;8.60;1.00
2623;DHT22;1321;48.690;9.022;2023-01-08T00:03:36;8.60;99.90
2623;DHT22;1321;48.690;9.022;2023-01-08T00:06:06;8.60;99.90
2623;DHT22;1321;48.690;9.022;2023-01-08T00:08:34;8.60;99.90
2623;DHT22;1321;48.690;9.022;2023-01-08T00:11:06;8.50;71.50
2623;DHT22;1321;48.690;9.022;2023-01-08T00:13:35;8.60;99.90
2623;DHT22;1321;48.690;9.022;2023-01-08T00:16:04;8.60;99.90
2623;DHT22;1321;48.690;9.022;2023-01-08T00:18:35;8.60;99.90
2623;DHT22;1321;48.690;9.022;2023-01-08T00:21:04;8.60;99.90
2623;DHT22;1321;48.690;9.022;2023-01-08T00:23:33;8.50;99.90
2623;DHT22;1321;48.690;9.022;2023-01-08T00:26:02;8.50;99.90
2623;DHT22;1321;48.690;9.022;2023-01-08T00:28:32;8.50;99.90
2623;DHT22;1321;48.690;9.022;2023-01-08T00:31:02;8.50;99.90
2623;DHT22;1321;48.690;9.022;2023-01-08T00:33:31;8.60;99.90
2623;DHT22;1321;48.690;9.022;2023-01-08T00:36:00;8.60;52.80
2623;DHT22;1321;48.690;9.022;2023-01-08T00:38:28;8.60;53.30
2623;DHT22;1321;48.690;9.022;2023-01-08T00:40:56;8.50;99.90
2623;DHT22;1321;48.690;9.022;2023-01-08T00:43:24;8.60;1.00
2623;DHT22;1321;48.690;9.022;2023-01-08T00:45:54;8.50;27.60
2623;DHT22;1321;48.690;9.022;2023-01-08T00:48:22;8.50;34.40
2623;DHT22;1321;48.690;9.022;2023-01-08T00:50:52;8.50;1.00
2623;DHT22;1321;48.690;9.022;2023-01-08T00:53:21;8.50;1.00
2623;DHT22;1321;48.690;9.022;2023-01-08T00:55:49;8.50;1.00
2623;DHT22;1321;48.690;9.022;2023-01-08T00:58:17;8.60;1.00
2623;DHT22;1321;48.690;9.022;2023-01-08T01:00:45;8.70;1.00
2623;DHT22;1321;48.690;9.022;2023-01-08T01:03:15;8.60;1.00
2623;DHT22;1321;48.690;9.022;2023-01-08T01:05:43;8.60;1.00
2623;DHT22;1321;48.690;9.022;2023-01-08T01:08:11;8.60;1.00
2623;DHT22;1321;48.690;9.022;2023-01-08T01:10:39;8.70;1.00
2623;DHT22;1321;48.690;9.022;2023-01-08T01:13:07;8.50;1.00
2623;DHT22;1321;48.690;9.022;2023-01-08T01:15:35;8.50;1.00
2623;DHT22;1321;48.690;9.022;2023-01-08T01:18:03;8.50;1.00
2623;DHT22;1321;48.690;9.022;2023-01-08T01:20:33;8.40;99.90
2623;DHT22;1321;48.690;9.022;2023-01-08T01:23:03;8.40;46.40
2623;DHT22;1321;48.690;9.022;2023-01-08T01:25:35;8.40;99.90
2623;DHT22;1321;48.690;9.022;2023-01-08T01:28:04;8.40;70.10
2623;DHT22;1321;48.690;9.022;2023-01-08T01:30:32;8.40;1.00
2623;DHT22;1321;48.690;9.022;2023-01-08T01:33:00;8.40;39.20
2623;DHT22;1321;48.690;9.022;2023-01-08T01:35:28;8.50;1.00
2623;DHT22;1321;48.690;9.022;2023-01-08T01:37:57;8.50;1.00
2623;DHT22;1321;48.690;9.022;2023-01-08T01:40:25;8.50;1.00
2623;DHT22;1321;48.690;9.022;2023-01-08T01:42:53;8.50;1.00
2623;DHT22;1321;48.690;9.022;2023-01-08T01:45:23;8.50;1.00
2623;DHT22;1321;48.690;9.022;2023-01-08T01:47:56;8.50;1.00
2623;DHT22;1321;48.690;9.022;2023-01-08T01:50:27;8.60;1.00
2623;DHT22;1321;48.690;9.022;2023-01-08T01:53:01;8.50;1.00
2623;DHT22;1321;48.690;9.022;2023-01-08T01:55:31;8.60;1.00
2623;DHT22;1321;48.690;9.022;2023-01-08T01:58:02;8.60;1.00
2623;DHT22;1321;48.690;9.022;2023-01-08T02:00:32;8.60;1.00
2623;DHT22;1321;48.690;9.022;2023-01-08T02:03:01;8.60;1.00
2623;DHT22;1321;48.690;9.022;2023-01-08T02:05:34;8.60;1.00
2623;DHT22;1321;48.690;9.022;2023-01-08T02:08:11;8.60;1.00
2623;DHT22;1321;48.690;9.022;2023-01-08T02:10:44;8.60;1.00
2623;DHT22;1321;48.690;9.022;2023-01-08T02:13:19;8.60;1.00
2623;DHT22;1321;48.690;9.022;2023-01-08T02:15:54;8.70;1.00
2623;DHT22;1321;48.690;9.022;2023-01-08T02:18:27;8.60;1.00
2623;DHT22;1321;48.690;9.022;2023-01-08T02:21:01;8.70;1.00
2623;DHT22;1321;48.690;9.022;2023-01-08T02:23:40;8.70;1.00
2623;DHT22;1321;48.690;9.022;2023-01-08T02:26:18;8.70;99.90
2623;DHT22;1321;48.690;9.022;2023-01-08T02:28:50;8.70;1.00
2623;DHT22;1321;48.690;9.022;2023-01-08T02:31:21;8.70;99.90
2623;DHT22;1321;48.690;9.022;2023-01-08T02:33:50;8.70;99.90
2623;DHT22;1321;48.690;9.022;2023-01-08T02:36:31;8.70;99.90
2623;DHT22;1321;48.690;9.022;2023-01-08T02:39:18;8.80;1.00
2623;DHT22;1321;48.690;9.022;2023-01-08T02:42:00;8.70;99.90
2623;DHT22;1321;48.690;9.022;2023-01-08T02:44:41;8.80;99.90
2623;DHT22;1321;48.690;9.022;2023-01-08T02:47:21;8.80;99.90
2623;DHT22;1321;48.690;9.022;2023-01-08T02:49:55;8.70;99.90
2623;DHT22;1321;48.690;9.022;2023-01-08T02:52:28;8.70;99.90
2623;DHT22;1321;48.690;9.022;2023-01-08T02:55:00;8.80;99.90
2623;DHT22;1321;48.690;9.022;2023-01-08T02:57:31;8.80;99.90
2623;DHT22;1321;48.690;9.022;2023-01-08T03:00:00;8.70;99.90
2623;DHT22;1321;48.690;9.022;2023-01-08T03:02:31;8.80;99.90
2623;DHT22;1321;48.690;9.022;2023-01-08T03:05:04;8.80;1.00
2623;DHT22;1321;48.690;9.022;2023-01-08T03:07:33;8.70;1.00
2623;DHT22;1321;48.690;9.022;2023-01-08T03:10:02;8.70;1.00
2623;DHT22;1321;48.690;9.022;2023-01-08T03:12:43;8.70;1.00
2623;DHT22;1321;48.690;9.022;2023-01-08T03:15:18;8.70;1.00
2623;DHT22;1321;48.690;9.022;2023-01-08T03:17:49;8.80;1.00
2623;DHT22;1321;48.690;9.022;2023-01-08T03:20:21;8.80;99.90
2623;DHT22;1321;48.690;9.022;2023-01-08T03:22:53;8.80;99.90
2623;DHT22;1321;48.690;9.022;2023-01-08T03:25:24;8.80;99.90
2623;DHT22;1321;48.690;9.022;2023-01-08T03:27:58;8.80;99.90
2623;DHT22;1321;48.690;9.022;2023-01-08T03:30:27;8.80;99.90
2623;DHT22;1321;48.690;9.022;2023-01-08T03:32:58;8.80;99.90
2623;DHT22;1321;48.690;9.022;2023-01-08T03:35:27;8.70;99.90
2623;DHT22;1321;48.690;9.022;2023-01-08T03:37:59;8.60;1.00
2623;DHT22;1321;48.690;9.022;2023-01-08T03:40:34;8.60;1.00
2623;DHT22;1321;48.690;9.022;2023-01-08T03:43:05;8.50;1.00
2623;DHT22;1321;48.690;9.022;2023-01-08T03:45:36;8.50;1.00
2623;DHT22;1321;48.690;9.022;2023-01-08T03:48:06;8.60;1.00
2623;DHT22;1321;48.690;9.022;2023-01-08T03:50:35;8.60;1.00
2623;DHT22;1321;48.690;9.022;2023-01-08T03:53:03;8.60;1.00
2623;DHT22;1321;48.690;9.022;2023-01-08T03:55:31;8.60;1.00
2623;DHT22;1321;48.690;9.022;2023-01-08T03:58:00;8.60;1.00
2623;DHT22;1321;48.690;9.022;2023-01-08T04:00:29;8.70;99.90
2623;DHT22;1321;48.690;9.022;2023-01-08T04:02:57;8.70;99.90
2623;DHT22;1321;48.690;9.022;2023-01-08T04:05:25;8.80;99.90
2623;DHT22;1321;48.690;9.022;2023-01-08T04:07:54;8.80;99.90
2623;DHT22;1321;48.690;9.022;2023-01-08T04:10:23;8.80;99.90
2623;DHT22;1321;48.690;9.022;2023-01-08T04:12:52;8.80;99.90
2623;DHT22;1321;48.690;9.022;2023-01-08T04:15:20;8.80;99.90
2623;DHT22;1321;48.690;9.022;2023-01-08T04:17:49;8.80;99.90
2623;DHT22;1321;48.690;9.022;2023-01-08T04:20:18;8.80;99.90
2623;DHT22;1321;48.690;9.022;2023-01-08T04:22:46;8.80;99.90
2623;DHT22;1321;48.690;9.022;2023-01-08T04:25:14;8.70;99.90
2623;DHT22;1321;48.690;9.022;2023-01-08T04:27:42;8.60;1.00
2623;DHT22;1321;48.690;9.022;2023-01-08T04:30:11;8.60;1.00
2623;DHT22;1321;48.690;9.022;2023-01-08T04:32:39;8.60;1.00
2623;DHT22;1321;48.690;9.022;2023-01-08T04:35:09;8.70;99.90
2623;DHT22;1321;48.690;9.022;2023-01-08T04:37:37;8.60;99.90
2623;DHT22;1321;48.690;9.022;2023-01-08T04:40:06;8.80;99.90
2623;DHT22;1321;48.690;9.022;2023-01-08T04:42:34;8.70;99.90
2623;DHT22;1321;48.690;9.022;2023-01-08T04:45:03;8.80;99.90
2623;DHT22;1321;48.690;9.022;2023-01-08T04:47:31;8.80;99.90
2623;DHT22;1321;48.690;9.022;2023-01-08T04:49:59;8.90;99.90
2623;DHT22;1321;48.690;9.022;2023-01-08T04:52:28;8.90;99.90
2623;DHT22;1321;48.690;9.022;2023-01-08T04:54:56;8.90;99.90
2623;DHT22;1321;48.690;9.022;2023-01-08T04:57:25;9.00;99.90
2623;DHT22;1321;48.690;9.022;2023-01-08T04:59:53;8.90;99.90
2623;DHT22;1321;48.690;9.022;2023-01-08T05:02:21;9.00;99.90
2623;DHT22;1321;48.690;9.022;2023-01-08T05:04:49;8.90;1.00
2623;DHT22;1321;48.690;9.022;2023-01-08T05:07:17;8.90;1.00
2623;DHT22;1321;48.690;9.022;2023-01-08T05:09:47;8.90;81.90
2623;DHT22;1321;48.690;9.022;2023-01-08T05:12:15;9.00;99.90
2623;DHT22;1321;48.690;9.022;2023-01-08T05:14:43;9.00;99.90
2623;DHT22;1321;48.690;9.022;2023-01-08T05:17:11;9.00;99.90
2623;DHT22;1321;48.690;9.022;2023-01-08T05:19:39;9.00;1.00
2623;DHT22;1321;48.690;9.022;2023-01-08T05:22:08;9.00;1.00
2623;DHT22;1321;48.690;9.022;2023-01-08T05:24:36;9.00;99.90
2623;DHT22;1321;48.690;9.022;2023-01-08T05:27:05;9.10;99.90
2623;DHT22;1321;48.690;9.022;2023-01-08T05:29:34;9.00;1.00
2623;DHT22;1321;48.690;9.022;2023-01-08T05:32:02;9.00;1.00
2623;DHT22;1321;48.690;9.022;2023-01-08T05:34:30;9.00;1.00
2623;DHT22;1321;48.690;9.022;2023-01-08T05:36:58;9.10;6.70
2623;DHT22;1321;48.690;9.022;2023-01-08T05:39:26;9.00;1.00
2623;DHT22;1321;48.690;9.022;2023-01-08T05:41:54;9.10;85.90
2623;DHT22;1321;48.690;9.022;2023-01-08T05:44:24;9.10;46.70
2623;DHT22;1321;48.690;9.022;2023-01-08T05:46:52;9.10;7.60
2623;DHT22;1321;48.690;9.022;2023-01-08T05:49:20;9.00;1.00
2623;DHT22;1321;48.690;9.022;2023-01-08T05:51:49;9.00;99.90
2623;DHT22;1321;48.690;9.022;2023-01-08T05:54:17;9.00;99.90
2623;DHT22;1321;48.690;9.022;2023-01-08T05:56:45;8.90;32.40
2623;DHT22;1321;48.690;9.022;2023-01-08T05:59:14;8.90;47.80
2623;DHT22;1321;48.690;9.022;2023-01-08T06:01:43;9.00;99.90
2623;DHT22;1321;48.690;9.022;2023-01-08T06:04:11;9.10;1.00
2623;DHT22;1321;48.690;9.022;2023-01-08T06:06:40;9.00;1.00
2623;DHT22;1321;48.690;9.022;2023-01-08T06:09:08;9.10;99.90
2623;DHT22;1321;48.690;9.022;2023-01-08T06:11:36;9.10;1.00
2623;DHT22;1321;48.690;9.022;2023-01-08T06:14:04;9.10;1.00
2623;DHT22;1321;48.690;9.022;2023-01-08T06:16:32;9.10;99.90
2623;DHT22;1321;48.690;9.022;2023-01-08T06:19:02;9.10;99.90
2623;DHT22;1321;48.690;9.022;2023-01-08T06:21:30;9.10;99.90
2623;DHT22;1321;48.690;9.022;2023-01-08T06:23:58;9.20;99.90
2623;DHT22;1321;48.690;9.022;2023-01-08T06:26:26;9.10;1.00
2623;DHT22;1321;48.690;9.022;2023-01-08T06:28:54;9.20;1.00
2623;DHT22;1321;48.690;9.022;2023-01-08T06:31:22;9.30;1.00
2623;DHT22;1321;48.690;9.022;2023-01-08T06:33:50;9.20;1.00
2623;DHT22;1321;48.690;9.022;2023-01-08T06:36:20;9.20;1.00
2623;DHT22;1321;48.690;9.022;2023-01-08T06:38:48;9.20;1.00
2623;DHT22;1321;48.690;9.022;2023-01-08T06:41:16;9.20;1.00
2623;DHT22;1321;48.690;9.022;2023-01-08T06:43:44;9.20;99.90
2623;DHT22;1321;48.690;9.022;2023-01-08T06:46:14;9.10;1.00
2623;DHT22;1321;48.690;9.022;2023-01-08T06:48:42;9.20;99.90
2623;DHT22;1321;48.690;9.022;2023-01-08T06:51:10;9.10;1.00
2623;DHT22;1321;48.690;9.022;2023-01-08T06:53:39;9.00;1.00
2623;DHT22;1321;48.690;9.022;2023-01-08T06:56:08;9.00;1.00
2623;DHT22;1321;48.690;9.022;2023-01-08T06:58:37;9.10;99.90
2623;DHT22;1321;48.690;9.022;2023-01-08T07:01:05;8.90;99.90
2623;DHT22;1321;48.690;9.022;2023-01-08T07:03:33;9.00;15.40
2623;DHT22;1321;48.690;9.022;2023-01-08T07:06:02;9.00;99.90
2623;DHT22;1321;48.690;9.022;2023-01-08T07:08:30;8.90;99.90
2623;DHT22;1321;48.690;9.022;2023-01-08T07:11:02;8.90;74.10
2623;DHT22;1321;48.690;9.022;2023-01-08T07:13:30;9.00;99.90
2623;DHT22;1321;48.690;9.022;2023-01-08T07:16:04;9.00;39.60
2623;DHT22;1321;48.690;9.022;2023-01-08T07:18:33;8.90;40.20
2623;DHT22;1321;48.690;9.022;2023-01-08T07:21:02;8.90;1.00
2623;DHT22;1321;48.690;9.022;2023-01-08T07:23:30;8.90;99.90
2623;DHT22;1321;48.690;9.022;2023-01-08T07:25:59;8.90;1.00
2623;DHT22;1321;48.690;9.022;2023-01-08T07:28:30;8.90;1.00
2623;DHT22;1321;48.690;9.022;2023-01-08T07:31:02;8.70;99.90
2623;DHT22;1321;48.690;9.022;2023-01-08T07:33:30;8.90;1.00
2623;DHT22;1321;48.690;9.022;2023-01-08T07:35:58;8.80;1.00
2623;DHT22;1321;48.690;9.022;2023-01-08T07:38:26;8.70;14.50
2623;DHT22;1321;48.690;9.022;2023-01-08T07:40:56;8.70;6.90
2623;DHT22;1321;48.690;9.022;2023-01-08T07:43:24;8.60;99.90
2623;DHT22;1321;48.690;9.022;2023-01-08T07:45:53;8.80;99.90
2623;DHT22;1321;48.690;9.022;2023-01-08T07:48:22;8.80;99.90
2623;DHT22;1321;48.690;9.022;2023-01-08T07:50:50;8.80;99.90
2623;DHT22;1321;48.690;9.022;2023-01-08T07:53:18;8.80;99.90
2623;DHT22;1321;48.690;9.022;2023-01-08T07:55:46;8.70;99.90
2623;DHT22;1321;48.690;9.022;2023-01-08T07:58:15;8.80;99.90
2623;DHT22;1321;48.690;9.022;2023-01-08T08:00:43;8.90;99.90
2623;DHT22;1321;48.690;9.022;2023-01-08T08:03:12;8.80;99.90
2623;DHT22;1321;48.690;9.022;2023-01-08T08:05:40;8.80;1.00
2623;DHT22;1321;48.690;9.022;2023-01-08T08:08:09;8.80;99.90
2623;DHT22;1321;48.690;9.022;2023-01-08T08:10:39;8.70;99.90
2623;DHT22;1321;48.690;9.022;2023-01-08T08:13:08;8.70;99.90
2623;DHT22;1321;48.690;9.022;2023-01-08T08:15:37;8.70;99.90
2623;DHT22;1321;48.690;9.022;2023-01-08T08:18:06;8.70;99.90
2623;DHT22;1321;48.690;9.022;2023-01-08T08:20:36;8.80;99.90
2623;DHT22;1321;48.690;9.022;2023-01-08T08:23:06;8.80;99.90
2623;DHT22;1321;48.690;9.022;2023-01-08T08:25:35;8.70;99.90
2623;DHT22;1321;48.690;9.022;2023-01-08T08:28:03;8.70;99.90
2623;DHT22;1321;48.690;9.022;2023-01-08T08:30:33;8.80;99.90
2623;DHT22;1321;48.690;9.022;2023-01-08T08:33:03;8.70;99.90
2623;DHT22;1321;48.690;9.022;2023-01-08T08:35:32;8.60;99.90
2623;DHT22;1321;48.690;9.022;2023-01-08T08:38:03;8.70;99.90
2623;DHT22;1321;48.690;9.022;2023-01-08T08:40:31;8.70;99.90
2623;DHT22;1321;48.690;9.022;2023-01-08T08:43:01;8.70;99.90
2623;DHT22;1321;48.690;9.022;2023-01-08T08:45:29;8.70;99.90
2623;DHT22;1321;48.690;9.022;2023-01-08T08:47:57;8.70;99.90
2623;DHT22;1321;48.690;9.022;2023-01-08T08:50:25;8.60;99.90
2623;DHT22;1321;48.690;9.022;2023-01-08T08:52:58;8.70;99.90
2623;DHT22;1321;48.690;9.022;2023-01-08T08:55:27;8.70;99.90
2623;DHT22;1321;48.690;9.022;2023-01-08T08:58:01;8.80;99.90
2623;DHT22;1321;48.690;9.022;2023-01-08T09:00:31;8.80;99.90
2623;DHT22;1321;48.690;9.022;2023-01-08T09:02:59;8.70;99.90
2623;DHT22;1321;48.690;9.022;2023-01-08T09:05:27;8.70;99.90
2623;DHT22;1321;48.690;9.022;2023-01-08T09:07:55;8.60;99.90
2623;DHT22;1321;48.690;9.022;2023-01-08T09:10:24;8.80;99.90
2623;DHT22;1321;48.690;9.022;2023-01-08T09:12:53;8.70;99.90
2623;DHT22;1321;48.690;9.022;2023-01-08T09:15:22;8.70;99.90
2623;DHT22;1321;48.690;9.022;2023-01-08T09:17:53;8.60;99.90
2623;DHT22;1321;48.690;9.022;2023-01-08T09:20:22;8.60;99.90
2623;DHT22;1321;48.690;9.022;2023-01-08T09:22:51;8.70;99.90
2623;DHT22;1321;48.690;9.022;2023-01-08T09:25:19;8.70;99.90
2623;DHT22;1321;48.690;9.022;2023-01-08T09:27:47;8.80;99.90
2623;DHT22;1321;48.690;9.022;2023-01-08T09:30:16;8.80;99.90
2623;DHT22;1321;48.690;9.022;2023-01-08T09:32:44;8.80;99.90
2623;DHT22;1321;48.690;9.022;2023-01-08T09:35:13;8.80;99.90
2623;DHT22;1321;48.690;9.022;2023-01-08T09:37:41;8.80;1.00
2623;DHT22;1321;48.690;9.022;2023-01-08T09:40:13;8.80;78.40
2623;DHT22;1321;48.690;9.022;2023-01-08T09:42:41;8.90;27.90
2623;DHT22;1321;48.690;9.022;2023-01-08T09:45:15;8.80;99.90
2623;DHT22;1321;48.690;9.022;2023-01-08T09:47:51;8.70;23.50
2623;DHT22;1321;48.690;9.022;2023-01-08T09:50:21;8.80;1.00
2623;DHT22;1321;48.690;9.022;2023-01-08T09:52:51;8.90;99.90
2623;DHT22;1321;48.690;9.022;2023-01-08T09:55:19;8.80;99.90
2623;DHT22;1321;48.690;9.022;2023-01-08T09:57:48;8.80;99.90
2623;DHT22;1321;48.690;9.022;2023-01-08T10:00:20;8.80;99.90
2623;DHT22;1321;48.690;9.022;2023-01-08T10:02:51;8.80;1.00
2623;DHT22;1321;48.690;9.022;2023-01-08T10:05:20;8.90;1.00
2623;DHT22;1321;48.690;9.022;2023-01-08T10:07:48;8.90;1.00
2623;DHT22;1321;48.690;9.022;2023-01-08T10:10:19;8.90;92.50
2623;DHT22;1321;48.690;9.022;2023-01-08T10:12:48;9.00;99.60
2623;DHT22;1321;48.690;9.022;2023-01-08T10:15:17;9.10;1.00
2623;DHT22;1321;48.690;9.022;2023-01-08T10:17:50;9.10;99.90
2623;DHT22;1321;48.690;9.022;2023-01-08T10:20:23;9.10;99.90
2623;DHT22;1321;48.690;9.022;2023-01-08T10:22:52;9.10;99.90
2623;DHT22;1321;48.690;9.022;2023-01-08T10:25:23;9.10;1.00
2623;DHT22;1321;48.690;9.022;2023-01-08T10:27:55;9.10;99.90
2623;DHT22;1321;48.690;9.022;2023-01-08T10:30:34;9.10;1.00
2623;DHT22;1321;48.690;9.022;2023-01-08T10:33:08;9.10;99.90
2623;DHT22;1321;48.690;9.022;2023-01-08T10:35:40;9.10;99.90
2623;DHT22;1321;48.690;9.022;2023-01-08T10:38:23;9.10;99.90
2623;DHT22;1321;48.690;9.022;2023-01-08T10:40:52;9.10;1.00
2623;DHT22;1321;48.690;9.022;2023-01-08T10:43:25;9.10;1.00
2623;DHT22;1321;48.690;9.022;2023-01-08T10:45:57;9.10;99.90
2623;DHT22;1321;48.690;9.022;2023-01-08T10:48:31;9.20;99.90
2623;DHT22;1321;48.690;9.022;2023-01-08T10:51:06;9.20;99.90
2623;DHT22;1321;48.690;9.022;2023-01-08T10:53:34;9.30;99.90
2623;DHT22;1321;48.690;9.022;2023-01-08T10:56:04;9.30;99.90
2623;DHT22;1321;48.690;9.022;2023-01-08T10:58:40;9.30;99.90
2623;DHT22;1321;48.690;9.022;2023-01-08T11:01:10;9.30;99.90
2623;DHT22;1321;48.690;9.022;2023-01-08T11:03:39;9.20;99.90
2623;DHT22;1321;48.690;9.022;2023-01-08T11:06:18;9.30;99.90
2623;DHT22;1321;48.690;9.022;2023-01-08T11:08:50;9.30;1.00
2623;DHT22;1321;48.690;9.022;2023-01-08T11:11:18;9.40;1.00
2623;DHT22;1321;48.690;9.022;2023-01-08T11:13:55;9.30;1.00
2623;DHT22;1321;48.690;9.022;2023-01-08T11:16:31;9.30;99.90
2623;DHT22;1321;48.690;9.022;2023-01-08T11:19:00;9.40;99.90
2623;DHT22;1321;48.690;9.022;2023-01-08T11:21:31;9.50;99.90
2623;DHT22;1321;48.690;9.022;2023-01-08T11:24:09;9.50;99.90
2623;DHT22;1321;48.690;9.022;2023-01-08T11:26:40;9.50;1.00
2623;DHT22;1321;48.690;9.022;2023-01-08T11:29:14;9.50;99.90
2623;DHT22;1321;48.690;9.022;2023-01-08T11:31:50;9.60;99.90
2623;DHT22;1321;48.690;9.022;2023-01-08T11:34:25;9.60;99.90
2623;DHT22;1321;48.690;9.022;2023-01-08T11:37:02;9.60;99.90
2623;DHT22;1321;48.690;9.022;2023-01-08T11:39:34;9.70;99.90
2623;DHT22;1321;48.690;9.022;2023-01-08T11:42:19;9.70;1.00
2623;DHT22;1321;48.690;9.022;2023-01-08T11:45:13;9.70;1.00
2623;DHT22;1321;48.690;9.022;2023-01-08T11:48:03;9.70;38.60
2623;DHT22;1321;48.690;9.022;2023-01-08T11:50:42;9.60;1.00
2623;DHT22;1321;48.690;9.022;2023-01-08T11:53:19;9.70;1.00
2623;DHT22;1321;48.690;9.022;2023-01-08T11:55:58;9.70;99.90
2623;DHT22;1321;48.690;9.022;2023-01-08T11:58:39;9.60;1.00
2623;DHT22;1321;48.690;9.022;2023-01-08T12:01:32;9.60;99.90
2623;DHT22;1321;48.690;9.022;2023-01-08T12:04:20;9.70;1.00
2623;DHT22;1321;48.690;9.022;2023-01-08T12:06:57;9.60;99.90
2623;DHT22;1321;48.690;9.022;2023-01-08T12:09:37;9.60;99.90
2623;DHT22;1321;48.690;9.022;2023-01-08T12:12:14;9.70;99.90
2623;DHT22;1321;48.690;9.022;2023-01-08T12:14:54;9.70;45.60
2623;DHT22;1321;48.690;9.022;2023-01-08T12:17:51;9.70;1.00
2623;DHT22;1321;48.690;9.022;2023-01-08T12:20:29;9.80;66.90
2623;DHT22;1321;48.690;9.022;2023-01-08T12:23:10;9.80;1.00
2623;DHT22;1321;48.690;9.022;2023-01-08T12:25:58;9.80;99.90
2623;DHT22;1321;48.690;9.022;2023-01-08T12:31:51;9.70;1.00
2623;DHT22;1321;48.690;9.022;2023-01-08T12:34:38;9.80;1.00
2623;DHT22;1321;48.690;9.022;2023-01-08T12:37:13;9.80;99.90
2623;DHT22;1321;48.690;9.022;2023-01-08T12:39:48;9.80;1.00
2623;DHT22;1321;48.690;9.022;2023-01-08T12:42:21;9.70;99.90
2623;DHT22;1321;48.690;9.022;2023-01-08T12:44:55;9.80;99.90
2623;DHT22;1321;48.690;9.022;2023-01-08T12:47:26;9.90;1.00
2623;DHT22;1321;48.690;9.022;2023-01-08T12:50:04;9.90;1.00
2623;DHT22;1321;48.690;9.022;2023-01-08T12:52:40;9.90;99.90
2623;DHT22;1321;48.690;9.022;2023-01-08T12:55:24;9.90;99.90
2623;DHT22;1321;48.690;9.022;2023-01-08T12:58:03;9.80;8.80
2623;DHT22;1321;48.690;9.022;2023-01-08T13:00:36;10.00;1.00
2623;DHT22;1321;48.690;9.022;2023-01-08T13:03:11;10.00;99.90
2623;DHT22;1321;48.690;9.022;2023-01-08T13:05:42;10.00;1.00
2623;DHT22;1321;48.690;9.022;2023-01-08T13:08:29;9.90;1.00
2623;DHT22;1321;48.690;9.022;2023-01-08T13:10:59;9.90;1.00
2623;DHT22;1321;48.690;9.022;2023-01-08T13:13:31;9.90;99.90
2623;DHT22;1321;48.690;9.022;2023-01-08T13:16:07;10.00;99.90
2623;DHT22;1321;48.690;9.022;2023-01-08T13:18:36;10.00;99.90
2623;DHT22;1321;48.690;9.022;2023-01-08T13:21:07;10.00;99.90
2623;DHT22;1321;48.690;9.022;2023-01-08T13:23:36;10.00;1.00
2623;DHT22;1321;48.690;9.022;2023-01-08T13:26:05;9.90;99.90
2623;DHT22;1321;48.690;9.022;2023-01-08T13:28:41;10.00;1.00
2623;DHT22;1321;48.690;9.022;2023-01-08T13:31:25;9.90;1.00
2623;DHT22;1321;48.690;9.022;2023-01-08T13:33:54;9.80;1.00
2623;DHT22;1321;48.690;9.022;2023-01-08T13:36:24;9.90;99.90
2623;DHT22;1321;48.690;9.022;2023-01-08T13:39:05;9.90;99.90
2623;DHT22;1321;48.690;9.022;2023-01-08T13:41:56;9.90;99.90
2623;DHT22;1321;48.690;9.022;2023-01-08T13:44:28;9.90;99.90
2623;DHT22;1321;48.690;9.022;2023-01-08T13:47:00;9.90;99.90
2623;DHT22;1321;48.690;9.022;2023-01-08T13:49:33;9.90;1.00
2623;DHT22;1321;48.690;9.022;2023-01-08T13:52:02;9.90;1.00
2623;DHT22;1321;48.690;9.022;2023-01-08T13:54:33;10.00;99.90
2623;DHT22;1321;48.690;9.022;2023-01-08T13:57:05;10.10;1.00
2623;DHT22;1321;48.690;9.022;2023-01-08T13:59:41;10.20;99.90
2623;DHT22;1321;48.690;9.022;2023-01-08T14:02:41;10.30;99.90
2623;DHT22;1321;48.690;9.022;2023-01-08T14:05:20;10.40;15.50
2623;DHT22;1321;48.690;9.022;2023-01-08T14:07:49;10.50;1.00
2623;DHT22;1321;48.690;9.022;2023-01-08T14:10:18;10.50;1.00
2623;DHT22;1321;48.690;9.022;2023-01-08T14:12:47;10.60;1.00
2623;DHT22;1321;48.690;9.022;2023-01-08T14:15:22;10.40;99.90
2623;DHT22;1321;48.690;9.022;2023-01-08T14:17:51;10.30;1.00
2623;DHT22;1321;48.690;9.022;2023-01-08T14:20:29;10.20;99.90
2623;DHT22;1321;48.690;9.022;2023-01-08T14:22:59;10.30;1.00
2623;DHT22;1321;48.690;9.022;2023-01-08T14:25:28;10.30;1.00
2623;DHT22;1321;48.690;9.022;2023-01-08T14:27:58;10.30;1.00
2623;DHT22;1321;48.690;9.022;2023-01-08T14:30:29;10.20;1.00
2623;DHT22;1321;48.690;9.022;2023-01-08T14:32:58;10.20;1.00
2623;DHT22;1321;48.690;9.022;2023-01-08T14:35:29;10.20;99.90
2623;DHT22;1321;48.690;9.022;2023-01-08T14:37:59;10.20;99.90
2623;DHT22;1321;48.690;9.022;2023-01-08T14:40:30;10.20;1.00
2623;DHT22;1321;48.690;9.022;2023-01-08T14:43:05;10.20;99.90
2623;DHT22;1321;48.690;9.022;2023-01-08T14:45:36;10.20;1.00
2623;DHT22;1321;48.690;9.022;2023-01-08T14:48:10;10.30;99.90
2623;DHT22;1321;48.690;9.022;2023-01-08T14:50:41;10.30;99.90
2623;DHT22;1321;48.690;9.022;2023-01-08T14:53:24;10.30;1.00
2623;DHT22;1321;48.690;9.022;2023-01-08T14:55:55;10.20;1.00
2623;DHT22;1321;48.690;9.022;2023-01-08T14:58:25;10.20;1.00
2623;DHT22;1321;48.690;9.022;2023-01-08T15:00:59;10.20;1.00
2623;DHT22;1321;48.690;9.022;2023-01-08T15:03:33;10.20;1.00
2623;DHT22;1321;48.690;9.022;2023-01-08T15:06:02;10.20;1.00
2623;DHT22;1321;48.690;9.022;2023-01-08T15:08:33;10.20;99.90
2623;DHT22;1321;48.690;9.022;2023-01-08T15:11:03;10.10;1.00
2623;DHT22;1321;48.690;9.022;2023-01-08T15:13:34;10.20;1.00
2623;DHT22;1321;48.690;9.022;2023-01-08T15:16:08;10.20;1.00
2623;DHT22;1321;48.690;9.022;2023-01-08T15:18:41;10.10;99.90
2623;DHT22;1321;48.690;9.022;2023-01-08T15:21:16;10.20;99.90
2623;DHT22;1321;48.690;9.022;2023-01-08T15:23:46;10.20;99.90
2623;DHT22;1321;48.690;9.022;2023-01-08T15:26:15;10.10;99.90
2623;DHT22;1321;48.690;9.022;2023-01-08T15:28:47;10.10;99.90
2623;DHT22;1321;48.690;9.022;2023-01-08T15:31:29;10.20;1.00
2623;DHT22;1321;48.690;9.022;2023-01-08T15:33:58;10.10;99.90
2623;DHT22;1321;48.690;9.022;2023-01-08T15:36:27;10.10;99.90
2623;DHT22;1321;48.690;9.022;2023-01-08T15:38:55;10.20;1.00
2623;DHT22;1321;48.690;9.022;2023-01-08T15:41:23;10.00;1.00
2623;DHT22;1321;48.690;9.022;2023-01-08T15:44:10;10.00;1.00
2623;DHT22;1321;48.690;9.022;2023-01-08T15:46:40;10.00;1.00
2623;DHT22;1321;48.690;9.022;2023-01-08T15:49:08;10.00;1.00
2623;DHT22;1321;48.690;9.022;2023-01-08T15:51:39;10.00;1.00
2623;DHT22;1321;48.690;9.022;2023-01-08T15:54:09;10.00;1.00
2623;DHT22;1321;48.690;9.022;2023-01-08T15:56:38;10.10;99.90
2623;DHT22;1321;48.690;9.022;2023-01-08T15:59:07;10.10;99.90
2623;DHT22;1321;48.690;9.022;2023-01-08T16:01:35;9.90;99.90
2623;DHT22;1321;48.690;9.022;2023-01-08T16:04:05;9.80;99.90
2623;DHT22;1321;48.690;9.022;2023-01-08T16:06:33;9.90;1.00
2623;DHT22;1321;48.690;9.022;2023-01-08T16:09:02;9.90;99.90
2623;DHT22;1321;48.690;9.022;2023-01-08T16:11:31;10.00;99.90
2623;DHT22;1321;48.690;9.022;2023-01-08T16:13:59;9.90;99.90
2623;DHT22;1321;48.690;9.022;2023-01-08T16:16:27;9.90;1.00
2623;DHT22;1321;48.690;9.022;2023-01-08T16:18:55;9.90;1.00
2623;DHT22;1321;48.690;9.022;2023-01-08T16:21:26;10.00;99.90
2623;DHT22;1321;48.690;9.022;2023-01-08T16:23:54;10.00;99.90
2623;DHT22;1321;48.690;9.022;2023-01-08T16:26:23;10.00;99.90
2623;DHT22;1321;48.690;9.022;2023-01-08T16:28:51;10.00;1.00
2623;DHT22;1321;48.690;9.022;2023-01-08T16:31:19;10.00;99.90
2623;DHT22;1321;48.690;9.022;2023-01-08T16:33:47;10.10;99.90
2623;DHT22;1321;48.690;9.022;2023-01-08T16:36:15;10.20;99.90
2623;DHT22;1321;48.690;9.022;2023-01-08T16:38:46;10.10;63.80
2623;DHT22;1321;48.690;9.022;2023-01-08T16:41:15;10.00;99.90
2623;DHT22;1321;48.690;9.022;2023-01-08T16:43:43;10.00;99.90
2623;DHT22;1321;48.690;9.022;2023-01-08T16:46:12;10.00;99.90
2623;DHT22;1321;48.690;9.022;2023-01-08T16:48:42;9.90;99.90
2623;DHT22;1321;48.690;9.022;2023-01-08T16:51:11;10.00;99.90